Gibson Creek, Washington
Current Conditions -  °F | °C
As of 10:15 AM on Thursday 18 Dec 2014 (Local Time) from KCLS Reporting Station
Drizzle Drizzle  
Wind Chill: 46°   Ceiling: 4100
Heat Index: 46°   Visibility: 10mi
Dew Point: 46°   Wind: 0mph
Humidity: 100%   Direction: NA
Pressure: 29.91"   Gusts: NA
Location:  46.8553°N, 123.315°W
Report Text: KCLS 181815Z AUTO 00000KT 10SM -DZ BKN041 BKN050 08/08 A2991 RMK AO2
Loading
Personal Weather Stations






























Interactive Weather Map New forecast layout! Learn more

10-Day Weather Forecast

Advertisements
Track Severe Weather on mobile